createdAt,value
2022-10-28T00:02:25.204Z,5.50
2022-10-28T00:07:30.074Z,5.00
2022-10-28T00:12:37.770Z,4.80
2022-10-28T00:17:41.439Z,4.68
2022-10-28T00:22:45.379Z,4.10
2022-10-28T00:27:50.487Z,3.58
2022-10-28T00:32:54.431Z,3.78
2022-10-28T00:37:58.256Z,4.18
2022-10-28T00:43:03.214Z,4.40
2022-10-28T00:48:07.856Z,4.72
2022-10-28T00:53:16.349Z,4.30
2022-10-28T00:58:24.368Z,4.05
2022-10-28T01:03:28.239Z,4.03
2022-10-28T01:08:32.217Z,4.07
2022-10-28T01:13:45.671Z,4.85
2022-10-28T01:18:59.872Z,3.95
2022-10-28T01:24:20.658Z,3.83
2022-10-28T01:29:57.760Z,3.63
2022-10-28T01:35:14.052Z,3.90
2022-10-28T01:40:23.500Z,3.55
2022-10-28T01:45:31.768Z,4.35
2022-10-28T01:50:42.496Z,4.03
2022-10-28T01:55:50.300Z,4.15
2022-10-28T02:00:54.632Z,3.35
2022-10-28T02:06:03.463Z,3.45
2022-10-28T02:11:34.646Z,3.10
2022-10-28T02:16:48.274Z,4.00
2022-10-28T02:22:04.560Z,3.50
2022-10-28T02:27:14.295Z,4.05
2022-10-28T02:32:22.927Z,3.55
2022-10-28T02:37:31.575Z,3.80
2022-10-28T02:42:38.712Z,3.60
2022-10-28T02:47:46.930Z,3.33
2022-10-28T02:52:55.070Z,3.33
2022-10-28T02:57:59.147Z,3.28
2022-10-28T03:03:02.800Z,3.13
2022-10-28T03:08:08.034Z,3.03
2022-10-28T03:13:11.659Z,3.17
2022-10-28T03:18:17.407Z,3.03
2022-10-28T03:23:22.408Z,2.80
2022-10-28T03:28:26.094Z,2.97
2022-10-28T03:33:29.782Z,3.13
2022-10-28T03:38:34.761Z,3.08
2022-10-28T03:43:38.449Z,2.72
2022-10-28T03:48:42.064Z,2.92
2022-10-28T03:53:47.069Z,3.03
2022-10-28T04:03:54.741Z,2.60
2022-10-28T04:08:59.944Z,2.97
2022-10-28T04:14:03.568Z,2.58
2022-10-28T04:19:07.197Z,2.67
2022-10-28T04:24:12.439Z,2.58
2022-10-28T04:29:16.052Z,2.60
2022-10-28T04:34:19.721Z,2.38
2022-10-28T04:39:24.704Z,2.47
2022-10-28T04:44:28.308Z,2.85
2022-10-28T04:49:35.403Z,2.97
2022-10-28T04:54:43.015Z,2.63
2022-10-28T04:59:46.885Z,2.70
2022-10-28T05:04:50.606Z,2.92
2022-10-28T05:09:55.598Z,2.55
2022-10-28T05:14:59.211Z,3.28
2022-10-28T05:20:02.921Z,2.75
2022-10-28T05:25:08.629Z,2.42
2022-10-28T05:30:13.646Z,2.90
2022-10-28T05:35:17.345Z,2.42
2022-10-28T05:40:22.372Z,2.60
2022-10-28T05:45:26.130Z,2.78
2022-10-28T05:50:29.880Z,2.88
2022-10-28T05:55:35.367Z,2.53
2022-10-28T06:00:39.038Z,2.67
2022-10-28T06:05:44.929Z,2.80
2022-10-28T06:10:55.336Z,2.60
2022-10-28T06:15:59.010Z,2.55
2022-10-28T06:21:05.205Z,2.90
2022-10-28T06:26:10.266Z,2.47
2022-10-28T06:31:14.000Z,2.72
2022-10-28T06:36:17.774Z,3.03
2022-10-28T06:41:22.792Z,3.00
2022-10-28T06:46:26.949Z,2.70
2022-10-28T06:51:33.020Z,3.55
2022-10-28T06:56:38.086Z,3.25
2022-10-28T07:01:41.900Z,2.70
2022-10-28T07:06:47.563Z,2.85
2022-10-28T07:12:00.859Z,3.22
2022-10-28T07:17:08.511Z,3.22
2022-10-28T07:22:12.419Z,2.80
2022-10-28T07:27:17.582Z,3.10
2022-10-28T07:32:21.233Z,2.53
2022-10-28T07:37:24.864Z,3.00
2022-10-28T07:42:29.825Z,3.15
2022-10-28T07:47:33.868Z,3.28
2022-10-28T07:52:38.243Z,3.38
2022-10-28T07:57:43.309Z,2.72
2022-10-28T08:02:47.046Z,2.88
2022-10-28T08:07:50.713Z,3.15
2022-10-28T08:12:57.301Z,2.55
2022-10-28T08:18:00.918Z,2.75
2022-10-28T08:23:06.750Z,2.65
2022-10-28T08:28:14.389Z,2.83
2022-10-28T08:33:19.168Z,3.33
2022-10-28T08:38:22.845Z,2.90
2022-10-28T08:43:52.817Z,2.90
2022-10-28T08:49:03.419Z,3.50
2022-10-28T08:54:13.738Z,2.50
2022-10-28T08:59:22.470Z,3.42
2022-10-28T09:04:34.813Z,3.20
2022-10-28T09:09:39.568Z,2.70
2022-10-28T09:15:10.891Z,3.03
2022-10-28T09:20:20.348Z,2.80
2022-10-28T09:25:30.062Z,2.70
2022-10-28T09:30:43.804Z,2.67
2022-10-28T09:35:49.594Z,3.95
2022-10-28T09:41:00.831Z,2.88
2022-10-28T09:46:12.572Z,2.88
2022-10-28T09:51:29.518Z,2.60
2022-10-28T09:56:33.199Z,2.90
2022-10-28T10:01:41.049Z,2.25
2022-10-28T10:06:45.252Z,3.10
2022-10-28T10:11:51.252Z,2.72
2022-10-28T10:17:00.156Z,2.57
2022-10-28T10:22:03.767Z,2.50
2022-10-28T10:27:18.896Z,3.08
2022-10-28T10:32:27.977Z,2.55
2022-10-28T10:37:35.942Z,2.58
2022-10-28T10:42:46.784Z,3.10
2022-10-28T10:48:18.369Z,2.75
2022-10-28T10:53:25.373Z,2.90
2022-10-28T10:58:33.347Z,2.63
2022-10-28T11:03:47.872Z,2.75
2022-10-28T11:08:57.454Z,2.20
2022-10-28T11:14:08.562Z,2.40
2022-10-28T11:19:22.861Z,2.05
2022-10-28T11:24:44.598Z,2.72
2022-10-28T11:29:49.108Z,2.05
2022-10-28T11:35:32.252Z,3.03
2022-10-28T11:40:46.228Z,2.53
2022-10-28T11:46:00.587Z,3.22
2022-10-28T11:51:21.656Z,2.53
2022-10-28T11:56:34.247Z,2.40
2022-10-28T12:01:46.676Z,2.42
2022-10-28T12:07:14.614Z,2.35
2022-10-28T12:12:24.649Z,2.33
2022-10-28T12:17:35.973Z,3.08
2022-10-28T12:22:49.241Z,2.80
2022-10-28T12:27:56.457Z,2.63
2022-10-28T12:33:05.314Z,2.50
2022-10-28T12:38:16.352Z,4.22
2022-10-28T12:43:25.282Z,2.85
2022-10-28T12:48:34.413Z,2.55
2022-10-28T12:53:45.403Z,2.00
2022-10-28T12:58:56.078Z,2.35
2022-10-28T13:03:59.934Z,3.15
2022-10-28T13:09:36.358Z,1.70
2022-10-28T13:15:03.466Z,2.50
2022-10-28T13:20:20.242Z,2.88
2022-10-28T13:30:37.132Z,2.42
2022-10-28T13:35:40.845Z,2.90
2022-10-28T13:41:30.493Z,1.73
2022-10-28T13:47:03.442Z,2.83
2022-10-28T13:52:21.579Z,2.42
2022-10-28T13:57:29.776Z,2.97
2022-10-28T14:02:39.928Z,2.63
2022-10-28T14:07:54.470Z,2.42
2022-10-28T14:13:01.775Z,1.92
2022-10-28T14:18:29.985Z,2.60
2022-10-28T14:24:08.661Z,2.20
2022-10-28T14:29:29.935Z,1.95
2022-10-28T14:34:42.985Z,1.95
2022-10-28T14:40:01.995Z,1.95
2022-10-28T14:45:21.355Z,2.58
2022-10-28T14:50:31.754Z,2.10
2022-10-28T14:55:36.449Z,2.38
2022-10-28T15:00:48.638Z,2.40
2022-10-28T15:05:52.589Z,2.10
2022-10-28T15:10:56.418Z,2.05
2022-10-28T15:16:03.785Z,2.72
2022-10-28T15:21:09.951Z,2.85
2022-10-28T15:26:15.639Z,2.15
2022-10-28T15:31:20.666Z,2.10
2022-10-28T15:36:27.121Z,1.90
2022-10-28T15:41:52.420Z,2.47
2022-10-28T15:46:58.444Z,2.63
2022-10-28T15:52:21.730Z,2.90
2022-10-28T15:57:27.013Z,2.50
2022-10-28T16:02:57.481Z,3.13
2022-10-28T16:08:03.334Z,3.30
2022-10-28T16:13:10.576Z,3.00
2022-10-28T16:18:17.113Z,3.20
2022-10-28T16:23:23.907Z,3.03
2022-10-28T16:33:34.951Z,2.78
2022-10-28T16:43:42.388Z,4.38
2022-10-28T16:48:47.997Z,3.70
2022-10-28T16:53:54.669Z,4.20
2022-10-28T16:58:58.299Z,3.88
2022-10-28T17:04:03.424Z,3.78
2022-10-28T17:09:07.155Z,4.05
2022-10-28T17:14:10.775Z,4.03
2022-10-28T17:19:16.079Z,3.92
2022-10-28T17:24:23.310Z,4.20
2022-10-28T17:29:26.958Z,3.63
2022-10-28T17:34:31.977Z,4.53
2022-10-28T17:39:35.682Z,4.72
2022-10-28T17:44:39.764Z,4.95
2022-10-28T17:49:44.878Z,5.40
2022-10-28T17:54:48.542Z,5.20
2022-10-28T17:59:52.246Z,4.72
2022-10-28T18:04:57.204Z,4.55
2022-10-28T18:10:00.931Z,4.05
2022-10-28T18:15:05.423Z,4.53
2022-10-28T18:20:11.348Z,4.60
2022-10-28T18:25:15.270Z,4.43
2022-10-28T18:30:19.024Z,4.50
2022-10-28T18:35:24.128Z,4.45
2022-10-28T18:40:27.857Z,4.32
2022-10-28T18:45:32.416Z,4.20
2022-10-28T18:50:37.427Z,4.85
2022-10-28T18:55:41.092Z,4.43
2022-10-28T19:00:44.854Z,4.82
2022-10-28T19:05:50.237Z,4.80
2022-10-28T19:10:56.469Z,4.93
2022-10-28T19:16:00.588Z,4.67
2022-10-28T19:21:08.419Z,4.55
2022-10-28T19:26:13.709Z,5.30
2022-10-28T19:31:19.937Z,4.50
2022-10-28T19:36:26.753Z,6.00
2022-10-28T19:41:31.416Z,4.85
2022-10-28T19:46:36.531Z,5.25
2022-10-28T19:51:42.699Z,4.93
2022-10-28T19:56:47.624Z,4.30
2022-10-28T20:01:51.512Z,4.57
2022-10-28T20:06:57.696Z,4.18
2022-10-28T20:12:01.914Z,4.40
2022-10-28T20:17:06.837Z,3.25
2022-10-28T20:22:12.083Z,3.13
2022-10-28T20:27:15.773Z,3.20
2022-10-28T20:32:21.457Z,3.58
2022-10-28T20:37:26.494Z,3.58
2022-10-28T20:42:30.182Z,3.72
2022-10-28T20:47:33.826Z,3.22
2022-10-28T20:52:38.782Z,3.22
2022-10-28T20:57:43.260Z,3.25
2022-10-28T21:02:47.161Z,4.28
2022-10-28T21:07:52.509Z,3.15
2022-10-28T21:12:56.720Z,3.60
2022-10-28T21:18:00.600Z,3.97
2022-10-28T21:23:06.470Z,3.88
2022-10-28T21:28:10.138Z,4.50
2022-10-28T21:33:14.109Z,4.25
2022-10-28T21:38:19.209Z,4.32
2022-10-28T21:43:22.858Z,4.90
2022-10-28T21:48:27.567Z,5.20
2022-10-28T21:53:35.151Z,4.47
2022-10-28T21:58:39.477Z,4.40
2022-10-28T22:03:43.353Z,4.05
2022-10-28T22:08:48.516Z,4.40
2022-10-28T22:13:58.495Z,4.53
2022-10-28T22:19:04.069Z,5.32
2022-10-28T22:24:09.869Z,5.22
2022-10-28T22:29:13.510Z,5.50
2022-10-28T22:34:17.187Z,6.00
2022-10-28T22:39:22.216Z,6.47
2022-10-28T22:44:25.809Z,6.32
2022-10-28T22:49:29.399Z,6.13
2022-10-28T22:54:34.507Z,5.93
2022-10-28T22:59:38.204Z,5.97
2022-10-28T23:04:42.084Z,5.85
2022-10-28T23:09:47.184Z,5.93
2022-10-28T23:14:50.870Z,5.90
2022-10-28T23:19:54.514Z,5.70
2022-10-28T23:24:59.507Z,5.75
2022-10-28T23:30:03.118Z,5.28
2022-10-28T23:35:07.675Z,5.72
2022-10-28T23:40:13.529Z,5.80
2022-10-28T23:45:17.335Z,6.00
2022-10-28T23:50:20.970Z,5.80
2022-10-28T23:55:26.197Z,6.75
